sensor_id;sensor_type;location;lat;lon;timestamp;pressure;altitude;pressure_sealevel;temperature
15607;BMP180;7865;50.918;4.510;2022-07-03T00:01:32;101343.00;;;15.90
15607;BMP180;7865;50.918;4.510;2022-07-03T00:06:34;101333.00;;;15.80
15607;BMP180;7865;50.918;4.510;2022-07-03T00:11:36;101340.00;;;15.70
15607;BMP180;7865;50.918;4.510;2022-07-03T00:16:38;101335.00;;;15.70
15607;BMP180;7865;50.918;4.510;2022-07-03T00:21:47;101345.00;;;15.60
15607;BMP180;7865;50.918;4.510;2022-07-03T00:26:52;101337.00;;;15.60
15607;BMP180;7865;50.918;4.510;2022-07-03T00:31:54;101348.00;;;15.50
15607;BMP180;7865;50.918;4.510;2022-07-03T00:37:00;101331.00;;;15.40
15607;BMP180;7865;50.918;4.510;2022-07-03T00:42:11;101341.00;;;15.40
15607;BMP180;7865;50.918;4.510;2022-07-03T00:47:14;101338.00;;;15.40
15607;BMP180;7865;50.918;4.510;2022-07-03T00:52:18;101340.00;;;15.50
15607;BMP180;7865;50.918;4.510;2022-07-03T00:57:22;101333.00;;;15.60
15607;BMP180;7865;50.918;4.510;2022-07-03T01:13:14;101333.00;;;15.70
15607;BMP180;7865;50.918;4.510;2022-07-03T01:18:48;101337.00;;;15.70
15607;BMP180;7865;50.918;4.510;2022-07-03T01:29:52;101342.00;;;15.80
15607;BMP180;7865;50.918;4.510;2022-07-03T01:35:00;101338.00;;;15.90
15607;BMP180;7865;50.918;4.510;2022-07-03T01:40:04;101327.00;;;15.90
15607;BMP180;7865;50.918;4.510;2022-07-03T01:45:08;101325.00;;;15.80
15607;BMP180;7865;50.918;4.510;2022-07-03T01:50:12;101330.00;;;15.70
15607;BMP180;7865;50.918;4.510;2022-07-03T01:55:14;101312.00;;;15.60
15607;BMP180;7865;50.918;4.510;2022-07-03T02:00:21;101317.00;;;15.50
15607;BMP180;7865;50.918;4.510;2022-07-03T02:05:41;101320.00;;;15.50
15607;BMP180;7865;50.918;4.510;2022-07-03T02:11:10;101311.00;;;15.50
15607;BMP180;7865;50.918;4.510;2022-07-03T02:16:18;101302.00;;;15.40
15607;BMP180;7865;50.918;4.510;2022-07-03T02:21:21;101298.00;;;15.40
15607;BMP180;7865;50.918;4.510;2022-07-03T02:26:32;101302.00;;;15.30
15607;BMP180;7865;50.918;4.510;2022-07-03T02:31:38;101296.00;;;15.20
15607;BMP180;7865;50.918;4.510;2022-07-03T02:36:46;101308.00;;;15.00
15607;BMP180;7865;50.918;4.510;2022-07-03T02:42:03;101304.00;;;14.90
15607;BMP180;7865;50.918;4.510;2022-07-03T02:47:26;101306.00;;;14.90
15607;BMP180;7865;50.918;4.510;2022-07-03T02:57:42;101313.00;;;15.10
15607;BMP180;7865;50.918;4.510;2022-07-03T03:02:53;101319.00;;;15.20
15607;BMP180;7865;50.918;4.510;2022-07-03T03:13:35;101318.00;;;15.20
15607;BMP180;7865;50.918;4.510;2022-07-03T03:18:39;101312.00;;;15.30
15607;BMP180;7865;50.918;4.510;2022-07-03T03:23:49;101311.00;;;15.30
15607;BMP180;7865;50.918;4.510;2022-07-03T03:28:52;101320.00;;;15.40
15607;BMP180;7865;50.918;4.510;2022-07-03T03:33:57;101321.00;;;15.30
15607;BMP180;7865;50.918;4.510;2022-07-03T03:38:59;101324.00;;;15.40
15607;BMP180;7865;50.918;4.510;2022-07-03T03:44:01;101331.00;;;15.50
15607;BMP180;7865;50.918;4.510;2022-07-03T03:49:03;101328.00;;;15.50
15607;BMP180;7865;50.918;4.510;2022-07-03T03:54:05;101335.00;;;15.60
15607;BMP180;7865;50.918;4.510;2022-07-03T03:59:08;101333.00;;;15.70
15607;BMP180;7865;50.918;4.510;2022-07-03T04:04:11;101333.00;;;15.70
15607;BMP180;7865;50.918;4.510;2022-07-03T04:09:14;101341.00;;;15.70
15607;BMP180;7865;50.918;4.510;2022-07-03T04:14:16;101339.00;;;15.80
15607;BMP180;7865;50.918;4.510;2022-07-03T04:19:18;101327.00;;;15.90
15607;BMP180;7865;50.918;4.510;2022-07-03T04:24:20;101324.00;;;15.80
15607;BMP180;7865;50.918;4.510;2022-07-03T04:29:22;101334.00;;;15.70
15607;BMP180;7865;50.918;4.510;2022-07-03T04:34:24;101334.00;;;15.70
15607;BMP180;7865;50.918;4.510;2022-07-03T04:39:26;101342.00;;;15.80
15607;BMP180;7865;50.918;4.510;2022-07-03T04:44:29;101345.00;;;16.00
15607;BMP180;7865;50.918;4.510;2022-07-03T04:49:30;101359.00;;;16.30
15607;BMP180;7865;50.918;4.510;2022-07-03T04:54:32;101364.00;;;16.40
15607;BMP180;7865;50.918;4.510;2022-07-03T04:59:34;101366.00;;;16.70
15607;BMP180;7865;50.918;4.510;2022-07-03T05:04:36;101368.00;;;17.20
15607;BMP180;7865;50.918;4.510;2022-07-03T05:09:38;101373.00;;;17.50
15607;BMP180;7865;50.918;4.510;2022-07-03T05:14:40;101375.00;;;18.00
15607;BMP180;7865;50.918;4.510;2022-07-03T05:19:42;101379.00;;;18.30
15607;BMP180;7865;50.918;4.510;2022-07-03T05:24:45;101374.00;;;17.70
15607;BMP180;7865;50.918;4.510;2022-07-03T05:29:47;101384.00;;;17.80
15607;BMP180;7865;50.918;4.510;2022-07-03T05:34:49;101380.00;;;18.30
15607;BMP180;7865;50.918;4.510;2022-07-03T05:39:51;101379.00;;;18.90
15607;BMP180;7865;50.918;4.510;2022-07-03T05:44:53;101382.00;;;19.30
15607;BMP180;7865;50.918;4.510;2022-07-03T05:49:55;101390.00;;;19.20
15607;BMP180;7865;50.918;4.510;2022-07-03T05:54:57;101380.00;;;19.30
15607;BMP180;7865;50.918;4.510;2022-07-03T06:00:00;101380.00;;;19.90
15607;BMP180;7865;50.918;4.510;2022-07-03T06:05:02;101381.00;;;19.60
15607;BMP180;7865;50.918;4.510;2022-07-03T06:10:05;101374.00;;;20.00
15607;BMP180;7865;50.918;4.510;2022-07-03T06:15:07;101368.00;;;20.80
15607;BMP180;7865;50.918;4.510;2022-07-03T06:20:10;101379.00;;;20.90
15607;BMP180;7865;50.918;4.510;2022-07-03T06:25:12;101374.00;;;21.20
15607;BMP180;7865;50.918;4.510;2022-07-03T06:30:15;101374.00;;;21.00
15607;BMP180;7865;50.918;4.510;2022-07-03T06:35:19;101373.00;;;22.00
15607;BMP180;7865;50.918;4.510;2022-07-03T06:40:25;101374.00;;;22.60
15607;BMP180;7865;50.918;4.510;2022-07-03T06:45:27;101388.00;;;21.60
15607;BMP180;7865;50.918;4.510;2022-07-03T06:50:29;101390.00;;;21.30
15607;BMP180;7865;50.918;4.510;2022-07-03T06:55:31;101379.00;;;22.40
15607;BMP180;7865;50.918;4.510;2022-07-03T07:00:34;101386.00;;;23.20
15607;BMP180;7865;50.918;4.510;2022-07-03T07:05:36;101400.00;;;22.90
15607;BMP180;7865;50.918;4.510;2022-07-03T07:10:38;101392.00;;;22.90
15607;BMP180;7865;50.918;4.510;2022-07-03T07:15:40;101405.00;;;24.10
15607;BMP180;7865;50.918;4.510;2022-07-03T07:20:42;101408.00;;;23.40
15607;BMP180;7865;50.918;4.510;2022-07-03T07:25:44;101405.00;;;23.30
15607;BMP180;7865;50.918;4.510;2022-07-03T07:30:46;101411.00;;;23.30
15607;BMP180;7865;50.918;4.510;2022-07-03T07:35:49;101397.00;;;24.60
15607;BMP180;7865;50.918;4.510;2022-07-03T07:40:51;101398.00;;;25.40
15607;BMP180;7865;50.918;4.510;2022-07-03T07:45:53;101410.00;;;24.50
15607;BMP180;7865;50.918;4.510;2022-07-03T07:50:55;101408.00;;;23.10
15607;BMP180;7865;50.918;4.510;2022-07-03T07:55:58;101395.00;;;24.30
15607;BMP180;7865;50.918;4.510;2022-07-03T08:01:00;101401.00;;;24.70
15607;BMP180;7865;50.918;4.510;2022-07-03T08:06:20;101403.00;;;25.70
15607;BMP180;7865;50.918;4.510;2022-07-03T08:11:22;101400.00;;;26.80
15607;BMP180;7865;50.918;4.510;2022-07-03T08:16:24;101402.00;;;27.70
15607;BMP180;7865;50.918;4.510;2022-07-03T08:21:26;101403.00;;;28.10
15607;BMP180;7865;50.918;4.510;2022-07-03T08:26:28;101401.00;;;28.50
15607;BMP180;7865;50.918;4.510;2022-07-03T08:31:30;101404.00;;;27.90
15607;BMP180;7865;50.918;4.510;2022-07-03T08:36:32;101415.00;;;26.40
15607;BMP180;7865;50.918;4.510;2022-07-03T08:41:40;101412.00;;;25.50
15607;BMP180;7865;50.918;4.510;2022-07-03T08:46:42;101405.00;;;25.20
15607;BMP180;7865;50.918;4.510;2022-07-03T08:51:46;101398.00;;;25.50
15607;BMP180;7865;50.918;4.510;2022-07-03T08:56:49;101403.00;;;25.40
15607;BMP180;7865;50.918;4.510;2022-07-03T09:01:51;101404.00;;;26.10
15607;BMP180;7865;50.918;4.510;2022-07-03T09:06:54;101384.00;;;27.50
15607;BMP180;7865;50.918;4.510;2022-07-03T09:11:58;101390.00;;;29.90
15607;BMP180;7865;50.918;4.510;2022-07-03T09:17:00;101406.00;;;28.60
15607;BMP180;7865;50.918;4.510;2022-07-03T09:22:02;101402.00;;;26.80
15607;BMP180;7865;50.918;4.510;2022-07-03T09:27:10;101393.00;;;26.30
15607;BMP180;7865;50.918;4.510;2022-07-03T09:32:17;101408.00;;;27.90
15607;BMP180;7865;50.918;4.510;2022-07-03T09:37:25;101392.00;;;27.70
15607;BMP180;7865;50.918;4.510;2022-07-03T09:42:31;101410.00;;;28.10
15607;BMP180;7865;50.918;4.510;2022-07-03T09:47:34;101406.00;;;27.20
15607;BMP180;7865;50.918;4.510;2022-07-03T09:52:47;101410.00;;;26.90
15607;BMP180;7865;50.918;4.510;2022-07-03T10:03:02;101404.00;;;27.10
15607;BMP180;7865;50.918;4.510;2022-07-03T10:08:11;101403.00;;;29.30
15607;BMP180;7865;50.918;4.510;2022-07-03T10:13:15;101417.00;;;29.80
15607;BMP180;7865;50.918;4.510;2022-07-03T10:18:18;101415.00;;;28.10
15607;BMP180;7865;50.918;4.510;2022-07-03T10:23:21;101419.00;;;28.00
15607;BMP180;7865;50.918;4.510;2022-07-03T10:28:24;101432.00;;;26.50
15607;BMP180;7865;50.918;4.510;2022-07-03T10:33:28;101435.00;;;25.80
15607;BMP180;7865;50.918;4.510;2022-07-03T10:38:37;101431.00;;;26.10
15607;BMP180;7865;50.918;4.510;2022-07-03T10:43:51;101415.00;;;27.70
15607;BMP180;7865;50.918;4.510;2022-07-03T10:49:12;101433.00;;;30.20
15607;BMP180;7865;50.918;4.510;2022-07-03T10:54:21;101429.00;;;30.60
15607;BMP180;7865;50.918;4.510;2022-07-03T11:15:33;101423.00;;;27.60
15607;BMP180;7865;50.918;4.510;2022-07-03T11:25:48;101414.00;;;30.60
15607;BMP180;7865;50.918;4.510;2022-07-03T11:41:17;101426.00;;;29.10
15607;BMP180;7865;50.918;4.510;2022-07-03T11:46:25;101419.00;;;28.00
15607;BMP180;7865;50.918;4.510;2022-07-03T11:51:27;101400.00;;;28.20
15607;BMP180;7865;50.918;4.510;2022-07-03T11:56:30;101402.00;;;30.30
15607;BMP180;7865;50.918;4.510;2022-07-03T12:01:35;101420.00;;;30.90
15607;BMP180;7865;50.918;4.510;2022-07-03T12:06:47;101405.00;;;31.30
15607;BMP180;7865;50.918;4.510;2022-07-03T12:12:00;101399.00;;;32.00
15607;BMP180;7865;50.918;4.510;2022-07-03T12:17:03;101410.00;;;32.50
15607;BMP180;7865;50.918;4.510;2022-07-03T12:22:05;101409.00;;;31.80
15607;BMP180;7865;50.918;4.510;2022-07-03T12:27:07;101415.00;;;31.60
15607;BMP180;7865;50.918;4.510;2022-07-03T12:32:09;101403.00;;;31.40
15607;BMP180;7865;50.918;4.510;2022-07-03T12:37:12;101406.00;;;30.20
15607;BMP180;7865;50.918;4.510;2022-07-03T12:42:17;101415.00;;;29.20
15607;BMP180;7865;50.918;4.510;2022-07-03T12:47:20;101413.00;;;28.10
15607;BMP180;7865;50.918;4.510;2022-07-03T12:52:22;101413.00;;;27.30
15607;BMP180;7865;50.918;4.510;2022-07-03T12:57:25;101401.00;;;28.00
15607;BMP180;7865;50.918;4.510;2022-07-03T13:02:49;101412.00;;;29.60
15607;BMP180;7865;50.918;4.510;2022-07-03T13:07:55;101413.00;;;28.60
15607;BMP180;7865;50.918;4.510;2022-07-03T13:12:58;101423.00;;;29.10
15607;BMP180;7865;50.918;4.510;2022-07-03T13:18:01;101416.00;;;29.30
15607;BMP180;7865;50.918;4.510;2022-07-03T13:23:05;101405.00;;;28.90
15607;BMP180;7865;50.918;4.510;2022-07-03T13:28:12;101403.00;;;29.80
15607;BMP180;7865;50.918;4.510;2022-07-03T13:33:15;101408.00;;;27.20
15607;BMP180;7865;50.918;4.510;2022-07-03T13:38:17;101406.00;;;27.90
15607;BMP180;7865;50.918;4.510;2022-07-03T13:43:18;101410.00;;;28.30
15607;BMP180;7865;50.918;4.510;2022-07-03T13:48:20;101408.00;;;27.50
15607;BMP180;7865;50.918;4.510;2022-07-03T13:53:22;101400.00;;;28.10
15607;BMP180;7865;50.918;4.510;2022-07-03T13:58:25;101413.00;;;29.80
15607;BMP180;7865;50.918;4.510;2022-07-03T14:03:27;101392.00;;;28.80
15607;BMP180;7865;50.918;4.510;2022-07-03T14:08:30;101407.00;;;27.90
15607;BMP180;7865;50.918;4.510;2022-07-03T14:13:32;101427.00;;;28.70
15607;BMP180;7865;50.918;4.510;2022-07-03T14:18:34;101410.00;;;31.40
15607;BMP180;7865;50.918;4.510;2022-07-03T14:23:36;101404.00;;;33.20
15607;BMP180;7865;50.918;4.510;2022-07-03T14:28:38;101421.00;;;32.40
15607;BMP180;7865;50.918;4.510;2022-07-03T14:33:58;101407.00;;;31.70
15607;BMP180;7865;50.918;4.510;2022-07-03T14:39:01;101422.00;;;29.30
15607;BMP180;7865;50.918;4.510;2022-07-03T14:44:03;101408.00;;;31.20
15607;BMP180;7865;50.918;4.510;2022-07-03T14:49:05;101414.00;;;35.50
15607;BMP180;7865;50.918;4.510;2022-07-03T14:54:07;101429.00;;;32.50
15607;BMP180;7865;50.918;4.510;2022-07-03T14:59:09;101429.00;;;30.80
15607;BMP180;7865;50.918;4.510;2022-07-03T15:04:33;101403.00;;;35.10
15607;BMP180;7865;50.918;4.510;2022-07-03T15:09:49;101412.00;;;33.30
15607;BMP180;7865;50.918;4.510;2022-07-03T15:14:57;101429.00;;;29.40
15607;BMP180;7865;50.918;4.510;2022-07-03T15:20:02;101424.00;;;27.10
15607;BMP180;7865;50.918;4.510;2022-07-03T15:25:05;101416.00;;;26.80
15607;BMP180;7865;50.918;4.510;2022-07-03T15:30:10;101417.00;;;27.60
15607;BMP180;7865;50.918;4.510;2022-07-03T15:35:12;101421.00;;;26.90
15607;BMP180;7865;50.918;4.510;2022-07-03T15:40:55;101427.00;;;25.90
15607;BMP180;7865;50.918;4.510;2022-07-03T15:51:44;101422.00;;;23.90
15607;BMP180;7865;50.918;4.510;2022-07-03T15:56:48;101425.00;;;24.60
15607;BMP180;7865;50.918;4.510;2022-07-03T16:01:57;101426.00;;;25.40
15607;BMP180;7865;50.918;4.510;2022-07-03T16:07:17;101414.00;;;24.90
15607;BMP180;7865;50.918;4.510;2022-07-03T16:12:19;101421.00;;;23.90
15607;BMP180;7865;50.918;4.510;2022-07-03T16:17:24;101424.00;;;23.70
15607;BMP180;7865;50.918;4.510;2022-07-03T16:22:27;101413.00;;;24.20
15607;BMP180;7865;50.918;4.510;2022-07-03T16:27:30;101415.00;;;24.60
15607;BMP180;7865;50.918;4.510;2022-07-03T16:32:43;101423.00;;;23.90
15607;BMP180;7865;50.918;4.510;2022-07-03T16:38:02;101410.00;;;23.50
15607;BMP180;7865;50.918;4.510;2022-07-03T16:43:05;101409.00;;;23.80
15607;BMP180;7865;50.918;4.510;2022-07-03T16:48:12;101405.00;;;23.80
15607;BMP180;7865;50.918;4.510;2022-07-03T16:53:20;101412.00;;;23.10
15607;BMP180;7865;50.918;4.510;2022-07-03T16:58:24;101415.00;;;22.40
15607;BMP180;7865;50.918;4.510;2022-07-03T17:03:26;101411.00;;;22.40
15607;BMP180;7865;50.918;4.510;2022-07-03T17:08:29;101419.00;;;22.60
15607;BMP180;7865;50.918;4.510;2022-07-03T17:13:32;101423.00;;;22.50
15607;BMP180;7865;50.918;4.510;2022-07-03T17:18:49;101423.00;;;22.30
15607;BMP180;7865;50.918;4.510;2022-07-03T17:23:53;101414.00;;;22.60
15607;BMP180;7865;50.918;4.510;2022-07-03T17:29:02;101422.00;;;22.40
15607;BMP180;7865;50.918;4.510;2022-07-03T17:34:07;101422.00;;;22.00
15607;BMP180;7865;50.918;4.510;2022-07-03T17:39:10;101432.00;;;21.80
15607;BMP180;7865;50.918;4.510;2022-07-03T17:44:14;101425.00;;;21.50
15607;BMP180;7865;50.918;4.510;2022-07-03T17:49:19;101435.00;;;21.30
15607;BMP180;7865;50.918;4.510;2022-07-03T17:54:23;101433.00;;;21.20
15607;BMP180;7865;50.918;4.510;2022-07-03T17:59:26;101437.00;;;21.30
15607;BMP180;7865;50.918;4.510;2022-07-03T18:04:28;101431.00;;;21.60
15607;BMP180;7865;50.918;4.510;2022-07-03T18:09:30;101429.00;;;21.70
15607;BMP180;7865;50.918;4.510;2022-07-03T18:14:41;101432.00;;;21.70
15607;BMP180;7865;50.918;4.510;2022-07-03T18:19:47;101432.00;;;21.80
15607;BMP180;7865;50.918;4.510;2022-07-03T18:24:52;101435.00;;;21.40
15607;BMP180;7865;50.918;4.510;2022-07-03T18:29:56;101435.00;;;21.10
15607;BMP180;7865;50.918;4.510;2022-07-03T18:35:00;101446.00;;;21.00
15607;BMP180;7865;50.918;4.510;2022-07-03T18:40:04;101451.00;;;20.60
15607;BMP180;7865;50.918;4.510;2022-07-03T18:45:10;101461.00;;;20.30
15607;BMP180;7865;50.918;4.510;2022-07-03T18:50:13;101443.00;;;20.00
15607;BMP180;7865;50.918;4.510;2022-07-03T18:55:26;101456.00;;;19.80
15607;BMP180;7865;50.918;4.510;2022-07-03T19:00:32;101458.00;;;19.60
15607;BMP180;7865;50.918;4.510;2022-07-03T19:05:46;101464.00;;;19.50
15607;BMP180;7865;50.918;4.510;2022-07-03T19:10:53;101462.00;;;19.40
15607;BMP180;7865;50.918;4.510;2022-07-03T19:16:01;101450.00;;;19.30
15607;BMP180;7865;50.918;4.510;2022-07-03T19:21:04;101445.00;;;19.50
15607;BMP180;7865;50.918;4.510;2022-07-03T19:26:06;101455.00;;;19.30
15607;BMP180;7865;50.918;4.510;2022-07-03T19:31:10;101457.00;;;19.20
15607;BMP180;7865;50.918;4.510;2022-07-03T19:36:12;101471.00;;;19.00
15607;BMP180;7865;50.918;4.510;2022-07-03T19:41:14;101469.00;;;18.70
15607;BMP180;7865;50.918;4.510;2022-07-03T19:46:16;101479.00;;;18.40
15607;BMP180;7865;50.918;4.510;2022-07-03T19:51:18;101494.00;;;18.10
15607;BMP180;7865;50.918;4.510;2022-07-03T19:56:21;101496.00;;;17.90
15607;BMP180;7865;50.918;4.510;2022-07-03T20:01:23;101506.00;;;17.70
15607;BMP180;7865;50.918;4.510;2022-07-03T20:06:25;101514.00;;;17.50
15607;BMP180;7865;50.918;4.510;2022-07-03T20:11:27;101506.00;;;17.20
15607;BMP180;7865;50.918;4.510;2022-07-03T20:16:31;101513.00;;;16.90
15607;BMP180;7865;50.918;4.510;2022-07-03T20:21:33;101519.00;;;16.70
15607;BMP180;7865;50.918;4.510;2022-07-03T20:26:35;101535.00;;;16.60
15607;BMP180;7865;50.918;4.510;2022-07-03T20:31:38;101542.00;;;16.50
15607;BMP180;7865;50.918;4.510;2022-07-03T20:36:40;101537.00;;;16.40
15607;BMP180;7865;50.918;4.510;2022-07-03T20:41:43;101538.00;;;16.30
15607;BMP180;7865;50.918;4.510;2022-07-03T20:46:45;101541.00;;;16.20
15607;BMP180;7865;50.918;4.510;2022-07-03T20:51:47;101539.00;;;16.10
15607;BMP180;7865;50.918;4.510;2022-07-03T20:56:50;101533.00;;;15.90
15607;BMP180;7865;50.918;4.510;2022-07-03T21:01:52;101550.00;;;15.70
15607;BMP180;7865;50.918;4.510;2022-07-03T21:06:54;101550.00;;;15.60
15607;BMP180;7865;50.918;4.510;2022-07-03T21:11:58;101554.00;;;15.50
15607;BMP180;7865;50.918;4.510;2022-07-03T21:17:00;101557.00;;;15.40
15607;BMP180;7865;50.918;4.510;2022-07-03T21:22:03;101561.00;;;15.40
15607;BMP180;7865;50.918;4.510;2022-07-03T21:27:05;101566.00;;;15.40
15607;BMP180;7865;50.918;4.510;2022-07-03T21:32:08;101559.00;;;15.30
15607;BMP180;7865;50.918;4.510;2022-07-03T21:37:10;101564.00;;;15.20
15607;BMP180;7865;50.918;4.510;2022-07-03T21:42:12;101567.00;;;15.10
15607;BMP180;7865;50.918;4.510;2022-07-03T21:47:20;101567.00;;;15.00
15607;BMP180;7865;50.918;4.510;2022-07-03T21:52:22;101569.00;;;15.00
15607;BMP180;7865;50.918;4.510;2022-07-03T21:57:24;101575.00;;;14.90
15607;BMP180;7865;50.918;4.510;2022-07-03T22:02:26;101582.00;;;14.80
15607;BMP180;7865;50.918;4.510;2022-07-03T22:07:28;101573.00;;;14.80
15607;BMP180;7865;50.918;4.510;2022-07-03T22:12:30;101572.00;;;14.70
15607;BMP180;7865;50.918;4.510;2022-07-03T22:17:38;101583.00;;;14.70
15607;BMP180;7865;50.918;4.510;2022-07-03T22:22:41;101573.00;;;14.60
15607;BMP180;7865;50.918;4.510;2022-07-03T22:27:44;101567.00;;;14.60
15607;BMP180;7865;50.918;4.510;2022-07-03T22:32:46;101557.00;;;14.50
15607;BMP180;7865;50.918;4.510;2022-07-03T22:37:48;101543.00;;;14.40
15607;BMP180;7865;50.918;4.510;2022-07-03T22:42:52;101553.00;;;14.20
15607;BMP180;7865;50.918;4.510;2022-07-03T22:47:55;101559.00;;;14.10
15607;BMP180;7865;50.918;4.510;2022-07-03T22:52:57;101568.00;;;14.10
15607;BMP180;7865;50.918;4.510;2022-07-03T22:57:59;101572.00;;;14.00
15607;BMP180;7865;50.918;4.510;2022-07-03T23:03:01;101569.00;;;14.00
15607;BMP180;7865;50.918;4.510;2022-07-03T23:08:04;101574.00;;;13.90
15607;BMP180;7865;50.918;4.510;2022-07-03T23:13:06;101569.00;;;13.90
15607;BMP180;7865;50.918;4.510;2022-07-03T23:18:08;101567.00;;;13.80
15607;BMP180;7865;50.918;4.510;2022-07-03T23:23:10;101561.00;;;13.70
15607;BMP180;7865;50.918;4.510;2022-07-03T23:28:12;101567.00;;;13.60
15607;BMP180;7865;50.918;4.510;2022-07-03T23:33:14;101566.00;;;13.50
15607;BMP180;7865;50.918;4.510;2022-07-03T23:38:16;101561.00;;;13.40
15607;BMP180;7865;50.918;4.510;2022-07-03T23:43:18;101564.00;;;13.40
15607;BMP180;7865;50.918;4.510;2022-07-03T23:48:20;101569.00;;;13.30
15607;BMP180;7865;50.918;4.510;2022-07-03T23:53:40;101565.00;;;13.30
15607;BMP180;7865;50.918;4.510;2022-07-03T23:58:42;101577.00;;;13.20
